< < Back
Terminal Aerodrome Forecast


Current Version              Previous Versions:   1  2  3  4  5  6  7  8  9  

Terminal Aerodrome Forecast

500
FTUS42 KFFC 240520
TAFATL
TAF
KATL 240520Z 2406/2512 11005KT P6SM SCT250
     FM240900 12005KT P6SM SCT020
     FM241500 13009G14KT P6SM SCT035
     FM241900 11012G19KT P6SM SCT050
     FM250100 11010KT P6SM FEW080
     FM250800 13009G14KT P6SM BKN012=

Latest METAR

141
SAUS70 KWBC 240900
MTRATL
METAR KATL 240852Z 12005KT 10SM SCT250 18/13 A3032 RMK AO2 SLP259
T01780128 53006


USA.gov is the U.S. government's official web portal to all federal, state and local government web resources and services.